createdAt,value
2023-04-14T00:00:33.969Z,13.86
2023-04-14T00:05:53.682Z,14.58
2023-04-14T00:10:56.932Z,16.95
2023-04-14T00:22:25.860Z,16.04
2023-04-14T00:27:29.759Z,15.32
2023-04-14T00:32:33.389Z,14.82
2023-04-14T00:37:36.774Z,14.38
2023-04-14T00:42:47.654Z,14.02
2023-04-14T00:48:33.906Z,14.53
2023-04-14T00:53:37.669Z,17.08
2023-04-14T00:58:42.288Z,18.01
2023-04-14T01:03:45.822Z,16.86
2023-04-14T01:08:50.823Z,15.88
2023-04-14T01:13:57.405Z,15.24
2023-04-14T01:19:23.613Z,14.73
2023-04-14T01:24:45.099Z,14.25
2023-04-14T01:30:19.225Z,13.86
2023-04-14T01:35:42.688Z,13.51
2023-04-14T01:40:51.485Z,14.16
2023-04-14T01:45:59.368Z,16.45
2023-04-14T01:51:06.137Z,17.12
2023-04-14T01:56:13.282Z,15.80
2023-04-14T02:01:18.203Z,14.93
2023-04-14T02:06:23.250Z,14.36
2023-04-14T02:11:28.447Z,13.89
2023-04-14T02:16:34.101Z,13.52
2023-04-14T02:21:38.256Z,14.13
2023-04-14T02:26:48.068Z,16.30
2023-04-14T02:32:01.081Z,17.03
2023-04-14T02:37:15.613Z,15.74
2023-04-14T02:42:22.823Z,14.90
2023-04-14T02:47:33.298Z,14.36
2023-04-14T02:52:38.156Z,13.92
2023-04-14T02:57:41.967Z,13.57
2023-04-14T03:02:46.713Z,14.12
2023-04-14T03:07:53.214Z,16.45
2023-04-14T03:12:58.975Z,17.11
2023-04-14T03:18:04.263Z,15.77
2023-04-14T03:23:12.111Z,14.90
2023-04-14T03:28:23.188Z,14.33
2023-04-14T03:33:29.272Z,13.86
2023-04-14T03:38:34.826Z,13.46
2023-04-14T03:43:38.529Z,13.90
2023-04-14T03:48:45.952Z,16.09
2023-04-14T03:53:52.155Z,16.83
2023-04-14T03:58:57.426Z,15.54
2023-04-14T04:04:03.212Z,14.73
2023-04-14T04:09:09.549Z,14.21
2023-04-14T04:14:19.112Z,13.79
2023-04-14T04:19:25.456Z,13.43
2023-04-14T04:24:33.764Z,13.93
2023-04-14T04:29:37.852Z,16.14
2023-04-14T04:34:42.525Z,16.91
2023-04-14T04:39:48.219Z,15.67
2023-04-14T04:51:06.894Z,14.24
2023-04-14T04:56:10.162Z,13.88
2023-04-14T05:01:15.135Z,13.58
2023-04-14T05:06:18.402Z,14.14
2023-04-14T05:11:22.199Z,16.46
2023-04-14T05:16:25.900Z,17.21
2023-04-14T05:21:29.223Z,15.98
2023-04-14T05:26:52.027Z,15.21
2023-04-14T05:31:56.212Z,14.69
2023-04-14T05:36:59.412Z,14.31
2023-04-14T05:42:03.021Z,14.00
2023-04-14T05:47:06.391Z,14.54
2023-04-14T05:52:09.736Z,16.79
2023-04-14T05:57:12.981Z,17.41
2023-04-14T06:02:16.359Z,16.18
2023-04-14T06:07:19.933Z,15.45
2023-04-14T06:12:23.406Z,14.94
2023-04-14T06:17:26.961Z,14.60
2023-04-14T06:22:30.441Z,14.37
2023-04-14T06:27:33.685Z,15.76
2023-04-14T06:32:37.135Z,17.86
2023-04-14T06:37:40.459Z,17.76
2023-04-14T06:42:43.988Z,16.56
2023-04-14T06:47:47.386Z,15.92
2023-04-14T06:52:50.696Z,15.40
2023-04-14T06:57:54.628Z,14.98
2023-04-14T07:02:58.137Z,14.73
2023-04-14T07:08:01.906Z,14.56
2023-04-14T07:13:05.221Z,14.48
2023-04-14T07:18:08.673Z,14.44
2023-04-14T07:23:12.056Z,15.19
2023-04-14T07:28:16.083Z,17.53
2023-04-14T07:33:55.667Z,18.42
2023-04-14T07:38:59.009Z,17.37
2023-04-14T07:44:03.430Z,16.86
2023-04-14T07:49:06.934Z,16.55
2023-04-14T07:54:11.449Z,16.33
2023-04-14T07:59:15.237Z,16.09
2023-04-14T08:04:18.693Z,15.94
2023-04-14T08:09:22.066Z,15.81
2023-04-14T08:14:25.562Z,15.74
2023-04-14T08:19:29.081Z,15.74
2023-04-14T08:24:32.366Z,15.70
2023-04-14T08:29:38.762Z,15.67
2023-04-14T08:35:37.271Z,15.65
2023-04-14T08:40:09.889Z,15.74
2023-04-14T08:45:13.556Z,15.86
2023-04-14T08:50:21.618Z,15.99
2023-04-14T08:55:26.070Z,16.17
2023-04-14T09:00:29.681Z,16.33
2023-04-14T09:05:33.397Z,16.48
2023-04-14T09:10:38.366Z,16.63
2023-04-14T09:15:42.389Z,16.79
2023-04-14T09:20:48.081Z,16.94
2023-04-14T09:26:13.726Z,17.03
2023-04-14T09:31:18.637Z,17.05
2023-04-14T09:37:07.075Z,17.08
2023-04-14T09:42:10.114Z,17.20
2023-04-14T09:47:16.355Z,17.29
2023-04-14T09:52:19.353Z,17.32
2023-04-14T09:57:26.606Z,17.35
2023-04-14T10:02:30.943Z,17.44
2023-04-14T10:07:40.866Z,17.52
2023-04-14T10:12:45.375Z,17.60
2023-04-14T10:17:54.754Z,17.67
2023-04-14T10:22:58.100Z,17.74
2023-04-14T10:28:01.399Z,17.84
2023-04-14T10:33:04.648Z,17.85
2023-04-14T10:38:07.984Z,17.90
2023-04-14T10:43:13.972Z,17.94
2023-04-14T10:48:17.683Z,17.94
2023-04-14T10:53:20.860Z,17.98
2023-04-14T10:58:29.490Z,18.10
2023-04-14T11:03:43.869Z,18.16
2023-04-14T11:08:50.427Z,18.23
2023-04-14T11:14:13.286Z,18.26
2023-04-14T11:19:16.806Z,18.26
2023-04-14T11:24:22.323Z,18.25
2023-04-14T11:29:25.612Z,18.25
2023-04-14T11:34:28.954Z,18.27
2023-04-14T11:39:32.493Z,18.33
2023-04-14T11:44:36.268Z,18.39
2023-04-14T11:49:39.971Z,18.45
2023-04-14T11:54:43.217Z,18.52
2023-04-14T11:59:47.843Z,18.50
2023-04-14T12:04:51.862Z,18.48
2023-04-14T12:09:55.353Z,18.56
2023-04-14T12:14:59.225Z,18.63
2023-04-14T12:20:03.242Z,18.70
2023-04-14T12:25:12.739Z,18.91
2023-04-14T12:30:21.603Z,19.11
2023-04-14T12:35:24.948Z,19.36
2023-04-14T12:40:38.868Z,19.63
2023-04-14T12:45:42.957Z,19.92
2023-04-14T12:50:46.467Z,20.22
2023-04-14T12:56:10.591Z,20.43
2023-04-14T13:01:19.978Z,20.52
2023-04-14T13:06:27.610Z,20.54
2023-04-14T13:11:36.044Z,20.57
2023-04-14T13:16:39.771Z,20.51
2023-04-14T13:21:44.562Z,20.52
2023-04-14T13:26:49.514Z,20.55
2023-04-14T13:31:53.304Z,20.53
2023-04-14T13:36:57.366Z,20.32
2023-04-14T13:42:01.319Z,20.10
2023-04-14T13:47:06.418Z,19.84
2023-04-14T13:52:13.145Z,19.62
2023-04-14T13:57:17.344Z,19.45
2023-04-14T14:02:21.923Z,19.30
2023-04-14T14:07:27.001Z,19.18
2023-04-14T14:12:32.639Z,19.10
2023-04-14T14:17:37.592Z,19.06
2023-04-14T14:22:42.088Z,18.99
2023-04-14T14:27:46.211Z,18.90
2023-04-14T14:32:51.009Z,18.82
2023-04-14T14:37:54.876Z,18.78
2023-04-14T14:43:01.615Z,18.73
2023-04-14T14:48:06.120Z,18.66
2023-04-14T14:53:10.066Z,18.58
2023-04-14T14:58:13.259Z,18.52
2023-04-14T15:03:17.228Z,18.46
2023-04-14T15:08:20.341Z,18.37
2023-04-14T15:13:23.989Z,18.30
2023-04-14T15:18:27.075Z,18.25
2023-04-14T15:23:33.054Z,18.20
2023-04-14T15:28:36.087Z,18.14
2023-04-14T15:33:39.143Z,18.08
2023-04-14T15:38:42.254Z,18.03
2023-04-14T15:43:45.898Z,17.98
2023-04-14T15:48:48.880Z,17.94
2023-04-14T15:53:52.498Z,17.91
2023-04-14T15:58:55.776Z,17.89
2023-04-14T16:03:59.097Z,17.85
2023-04-14T16:09:03.571Z,17.81
2023-04-14T16:14:07.227Z,17.77
2023-04-14T16:19:10.532Z,17.73
2023-04-14T16:24:15.109Z,17.70
2023-04-14T16:29:18.378Z,17.63
2023-04-14T16:34:21.961Z,17.58
2023-04-14T16:39:25.279Z,17.55
2023-04-14T16:44:28.472Z,17.51
2023-04-14T16:49:32.061Z,17.46
2023-04-14T16:54:36.912Z,17.44
2023-04-14T16:59:41.696Z,17.41
2023-04-14T17:04:45.350Z,17.36
2023-04-14T17:09:49.929Z,17.31
2023-04-14T17:14:53.276Z,17.25
2023-04-14T17:19:57.004Z,17.19
2023-04-14T17:25:00.616Z,17.15
2023-04-14T17:30:05.189Z,17.08
2023-04-14T17:35:09.592Z,17.02
2023-04-14T17:40:13.882Z,16.95
2023-04-14T17:45:23.014Z,16.87
2023-04-14T17:50:26.338Z,16.80
2023-04-14T17:55:29.504Z,16.73
2023-04-14T18:00:32.782Z,16.66
2023-04-14T18:05:36.610Z,16.60
2023-04-14T18:10:39.825Z,16.54
2023-04-14T18:15:43.247Z,16.53
2023-04-14T18:20:50.351Z,16.49
2023-04-14T18:31:10.013Z,16.36
2023-04-14T18:36:14.640Z,16.24
2023-04-14T18:41:18.055Z,16.14
2023-04-14T18:46:21.838Z,16.07
2023-04-14T18:51:32.849Z,16.00
2023-04-14T18:56:36.667Z,15.95
2023-04-14T19:01:40.720Z,15.91
2023-04-14T19:06:44.099Z,15.86
2023-04-14T19:11:48.478Z,15.82
2023-04-14T19:16:51.889Z,15.80
2023-04-14T19:21:55.431Z,15.81
2023-04-14T19:26:58.979Z,15.77
2023-04-14T19:32:02.730Z,15.74
2023-04-14T19:37:06.099Z,15.71
2023-04-14T19:42:09.707Z,15.70
2023-04-14T19:47:13.004Z,15.70
2023-04-14T19:52:16.461Z,15.70
2023-04-14T19:57:22.142Z,15.69
2023-04-14T20:02:30.415Z,15.65
2023-04-14T20:07:34.244Z,15.58
2023-04-14T20:12:37.715Z,15.51
2023-04-14T20:17:41.008Z,15.47
2023-04-14T20:22:45.658Z,15.41
2023-04-14T20:27:49.661Z,15.41
2023-04-14T20:32:53.379Z,15.40
2023-04-14T20:42:55.800Z,15.26
2023-04-14T20:47:59.249Z,15.26
2023-04-14T20:53:02.748Z,15.26
2023-04-14T20:58:06.063Z,15.20
2023-04-14T21:03:10.026Z,15.11
2023-04-14T21:08:13.869Z,15.06
2023-04-14T21:15:26.637Z,15.01
2023-04-14T21:18:42.154Z,14.91
2023-04-14T21:23:45.599Z,14.83
2023-04-14T21:28:48.827Z,14.77
2023-04-14T21:33:52.118Z,14.72
2023-04-14T21:38:55.455Z,14.89
2023-04-14T21:43:59.264Z,16.93
2023-04-14T21:49:03.905Z,18.09
2023-04-14T21:54:08.400Z,17.01
2023-04-14T21:59:12.020Z,16.23
2023-04-14T22:04:25.190Z,15.69
2023-04-14T22:09:39.686Z,15.27
2023-04-14T22:14:42.908Z,15.04
2023-04-14T22:19:46.513Z,14.87
2023-04-14T22:24:51.771Z,14.75
2023-04-14T22:29:55.043Z,15.43
2023-04-14T22:34:58.706Z,17.79
2023-04-14T22:40:03.423Z,18.31
2023-04-14T22:45:07.747Z,17.09
2023-04-14T22:50:11.258Z,16.33
2023-04-14T22:55:14.486Z,15.87
2023-04-14T23:00:17.849Z,15.55
2023-04-14T23:05:21.363Z,15.30
2023-04-14T23:10:24.898Z,15.11
2023-04-14T23:15:28.587Z,14.94
2023-04-14T23:20:32.194Z,14.79
2023-04-14T23:25:35.437Z,14.66
2023-04-14T23:30:38.734Z,14.56
2023-04-14T23:35:42.014Z,14.45
2023-04-14T23:40:45.596Z,14.35
2023-04-14T23:45:49.146Z,14.27
2023-04-14T23:50:58.990Z,14.21
2023-04-14T23:56:07.129Z,14.15
